sensor_id;sensor_type;location;lat;lon;timestamp;P1;durP1;ratioP1;P2;durP2;ratioP2
19593;SDS011;9944;48.240;16.478;2023-04-24T00:03:44;3.33;;;2.60;;
19593;SDS011;9944;48.240;16.478;2023-04-24T00:07:48;4.20;;;2.70;;
19593;SDS011;9944;48.240;16.478;2023-04-24T00:11:53;2.55;;;2.35;;
19593;SDS011;9944;48.240;16.478;2023-04-24T00:15:58;3.00;;;2.50;;
19593;SDS011;9944;48.240;16.478;2023-04-24T00:20:02;2.92;;;2.63;;
19593;SDS011;9944;48.240;16.478;2023-04-24T00:24:08;3.58;;;2.60;;
19593;SDS011;9944;48.240;16.478;2023-04-24T00:28:11;3.78;;;2.40;;
19593;SDS011;9944;48.240;16.478;2023-04-24T00:32:16;3.50;;;2.58;;
19593;SDS011;9944;48.240;16.478;2023-04-24T00:36:20;3.35;;;2.65;;
19593;SDS011;9944;48.240;16.478;2023-04-24T00:40:24;4.25;;;3.05;;
19593;SDS011;9944;48.240;16.478;2023-04-24T00:44:27;3.85;;;2.70;;
19593;SDS011;9944;48.240;16.478;2023-04-24T00:48:32;4.43;;;3.05;;
19593;SDS011;9944;48.240;16.478;2023-04-24T00:52:35;3.33;;;3.03;;
19593;SDS011;9944;48.240;16.478;2023-04-24T00:56:38;3.78;;;3.08;;
19593;SDS011;9944;48.240;16.478;2023-04-24T01:00:44;3.03;;;2.72;;
19593;SDS011;9944;48.240;16.478;2023-04-24T01:04:49;5.55;;;3.20;;
19593;SDS011;9944;48.240;16.478;2023-04-24T01:08:53;4.85;;;3.22;;
19593;SDS011;9944;48.240;16.478;2023-04-24T01:12:57;3.58;;;3.25;;
19593;SDS011;9944;48.240;16.478;2023-04-24T01:17:01;4.03;;;3.42;;
19593;SDS011;9944;48.240;16.478;2023-04-24T01:21:05;4.05;;;3.22;;
19593;SDS011;9944;48.240;16.478;2023-04-24T01:25:12;4.75;;;3.42;;
19593;SDS011;9944;48.240;16.478;2023-04-24T01:29:16;4.47;;;3.40;;
19593;SDS011;9944;48.240;16.478;2023-04-24T01:33:20;3.40;;;3.10;;
19593;SDS011;9944;48.240;16.478;2023-04-24T01:37:24;3.63;;;2.95;;
19593;SDS011;9944;48.240;16.478;2023-04-24T01:41:29;4.95;;;3.22;;
19593;SDS011;9944;48.240;16.478;2023-04-24T01:45:32;4.78;;;3.30;;
19593;SDS011;9944;48.240;16.478;2023-04-24T01:49:38;4.30;;;3.63;;
19593;SDS011;9944;48.240;16.478;2023-04-24T01:53:42;4.50;;;3.53;;
19593;SDS011;9944;48.240;16.478;2023-04-24T01:57:46;4.30;;;3.42;;
19593;SDS011;9944;48.240;16.478;2023-04-24T02:01:49;4.85;;;3.30;;
19593;SDS011;9944;48.240;16.478;2023-04-24T02:05:54;4.82;;;3.65;;
19593;SDS011;9944;48.240;16.478;2023-04-24T02:09:58;4.57;;;3.40;;
19593;SDS011;9944;48.240;16.478;2023-04-24T02:14:03;4.38;;;3.50;;
19593;SDS011;9944;48.240;16.478;2023-04-24T02:18:06;4.10;;;3.25;;
19593;SDS011;9944;48.240;16.478;2023-04-24T02:22:09;4.32;;;3.38;;
19593;SDS011;9944;48.240;16.478;2023-04-24T02:26:12;4.32;;;3.67;;
19593;SDS011;9944;48.240;16.478;2023-04-24T02:30:16;4.63;;;3.70;;
19593;SDS011;9944;48.240;16.478;2023-04-24T02:34:20;5.65;;;3.72;;
19593;SDS011;9944;48.240;16.478;2023-04-24T02:38:24;4.45;;;3.55;;
19593;SDS011;9944;48.240;16.478;2023-04-24T02:42:27;4.65;;;3.67;;
19593;SDS011;9944;48.240;16.478;2023-04-24T02:46:32;4.00;;;3.30;;
19593;SDS011;9944;48.240;16.478;2023-04-24T02:50:35;3.55;;;2.67;;
19593;SDS011;9944;48.240;16.478;2023-04-24T02:54:38;2.97;;;2.55;;
19593;SDS011;9944;48.240;16.478;2023-04-24T02:58:42;3.33;;;2.47;;
19593;SDS011;9944;48.240;16.478;2023-04-24T03:02:46;3.38;;;2.40;;
19593;SDS011;9944;48.240;16.478;2023-04-24T03:06:51;3.60;;;2.40;;
19593;SDS011;9944;48.240;16.478;2023-04-24T03:10:56;2.50;;;2.25;;
19593;SDS011;9944;48.240;16.478;2023-04-24T03:14:59;2.97;;;2.10;;
19593;SDS011;9944;48.240;16.478;2023-04-24T03:19:03;3.53;;;1.98;;
19593;SDS011;9944;48.240;16.478;2023-04-24T03:23:10;2.97;;;1.95;;
19593;SDS011;9944;48.240;16.478;2023-04-24T03:27:14;2.75;;;2.00;;
19593;SDS011;9944;48.240;16.478;2023-04-24T03:31:43;2.75;;;1.80;;
19593;SDS011;9944;48.240;16.478;2023-04-24T03:35:48;2.47;;;2.00;;
19593;SDS011;9944;48.240;16.478;2023-04-24T03:39:51;3.17;;;2.10;;
19593;SDS011;9944;48.240;16.478;2023-04-24T03:43:58;2.35;;;1.80;;
19593;SDS011;9944;48.240;16.478;2023-04-24T03:48:01;3.78;;;2.17;;
19593;SDS011;9944;48.240;16.478;2023-04-24T03:52:07;2.80;;;2.10;;
19593;SDS011;9944;48.240;16.478;2023-04-24T03:56:10;2.67;;;1.80;;
19593;SDS011;9944;48.240;16.478;2023-04-24T04:00:14;1.92;;;1.70;;
19593;SDS011;9944;48.240;16.478;2023-04-24T04:08:59;4.28;;;2.30;;
19593;SDS011;9944;48.240;16.478;2023-04-24T04:13:03;2.30;;;1.95;;
19593;SDS011;9944;48.240;16.478;2023-04-24T04:17:08;3.13;;;2.03;;
19593;SDS011;9944;48.240;16.478;2023-04-24T04:21:11;2.22;;;1.90;;
19593;SDS011;9944;48.240;16.478;2023-04-24T04:25:16;2.33;;;1.98;;
19593;SDS011;9944;48.240;16.478;2023-04-24T04:29:21;2.25;;;2.00;;
19593;SDS011;9944;48.240;16.478;2023-04-24T04:33:26;2.35;;;1.90;;
19593;SDS011;9944;48.240;16.478;2023-04-24T04:37:29;2.33;;;2.00;;
19593;SDS011;9944;48.240;16.478;2023-04-24T04:41:44;2.00;;;1.80;;
19593;SDS011;9944;48.240;16.478;2023-04-24T04:45:54;2.83;;;2.10;;
19593;SDS011;9944;48.240;16.478;2023-04-24T04:50:17;3.22;;;1.70;;
19593;SDS011;9944;48.240;16.478;2023-04-24T04:54:23;1.70;;;1.58;;
19593;SDS011;9944;48.240;16.478;2023-04-24T04:58:28;2.08;;;1.75;;
19593;SDS011;9944;48.240;16.478;2023-04-24T05:02:33;2.83;;;1.92;;
19593;SDS011;9944;48.240;16.478;2023-04-24T05:06:37;2.10;;;1.48;;
19593;SDS011;9944;48.240;16.478;2023-04-24T05:10:40;2.00;;;1.58;;
19593;SDS011;9944;48.240;16.478;2023-04-24T05:14:46;2.05;;;1.70;;
19593;SDS011;9944;48.240;16.478;2023-04-24T05:18:49;2.05;;;1.67;;
19593;SDS011;9944;48.240;16.478;2023-04-24T05:22:57;2.05;;;1.60;;
19593;SDS011;9944;48.240;16.478;2023-04-24T05:27:02;2.70;;;1.60;;
19593;SDS011;9944;48.240;16.478;2023-04-24T05:31:14;2.72;;;1.55;;
19593;SDS011;9944;48.240;16.478;2023-04-24T05:35:19;1.63;;;1.33;;
19593;SDS011;9944;48.240;16.478;2023-04-24T05:39:22;2.22;;;1.30;;
19593;SDS011;9944;48.240;16.478;2023-04-24T05:43:27;1.83;;;1.38;;
19593;SDS011;9944;48.240;16.478;2023-04-24T05:47:32;1.50;;;1.30;;
19593;SDS011;9944;48.240;16.478;2023-04-24T05:51:35;1.80;;;1.30;;
19593;SDS011;9944;48.240;16.478;2023-04-24T05:55:38;2.70;;;1.33;;
19593;SDS011;9944;48.240;16.478;2023-04-24T05:59:41;1.90;;;1.23;;
19593;SDS011;9944;48.240;16.478;2023-04-24T06:03:46;1.40;;;1.30;;
19593;SDS011;9944;48.240;16.478;2023-04-24T06:07:50;1.73;;;1.20;;
19593;SDS011;9944;48.240;16.478;2023-04-24T06:11:56;2.13;;;1.17;;
19593;SDS011;9944;48.240;16.478;2023-04-24T06:16:07;1.88;;;1.48;;
19593;SDS011;9944;48.240;16.478;2023-04-24T06:20:15;1.38;;;1.27;;
19593;SDS011;9944;48.240;16.478;2023-04-24T06:24:18;1.45;;;1.15;;
19593;SDS011;9944;48.240;16.478;2023-04-24T06:28:21;1.60;;;1.40;;
19593;SDS011;9944;48.240;16.478;2023-04-24T06:32:26;3.72;;;1.25;;
19593;SDS011;9944;48.240;16.478;2023-04-24T06:36:31;1.20;;;1.10;;
19593;SDS011;9944;48.240;16.478;2023-04-24T06:40:36;1.20;;;1.10;;
19593;SDS011;9944;48.240;16.478;2023-04-24T06:44:40;1.40;;;1.15;;
19593;SDS011;9944;48.240;16.478;2023-04-24T06:48:43;2.17;;;1.10;;
19593;SDS011;9944;48.240;16.478;2023-04-24T06:52:47;1.55;;;1.33;;
19593;SDS011;9944;48.240;16.478;2023-04-24T06:56:51;2.00;;;1.40;;
19593;SDS011;9944;48.240;16.478;2023-04-24T07:00:54;1.55;;;1.17;;
19593;SDS011;9944;48.240;16.478;2023-04-24T07:04:57;1.73;;;1.58;;
19593;SDS011;9944;48.240;16.478;2023-04-24T07:09:01;1.27;;;1.17;;
19593;SDS011;9944;48.240;16.478;2023-04-24T07:13:05;1.27;;;1.17;;
19593;SDS011;9944;48.240;16.478;2023-04-24T07:17:08;1.48;;;1.33;;
19593;SDS011;9944;48.240;16.478;2023-04-24T07:21:11;1.30;;;1.20;;
19593;SDS011;9944;48.240;16.478;2023-04-24T07:25:15;1.58;;;1.20;;
19593;SDS011;9944;48.240;16.478;2023-04-24T07:29:19;1.40;;;1.30;;
19593;SDS011;9944;48.240;16.478;2023-04-24T07:33:22;1.10;;;1.00;;
19593;SDS011;9944;48.240;16.478;2023-04-24T07:37:25;1.30;;;1.20;;
19593;SDS011;9944;48.240;16.478;2023-04-24T07:41:30;1.45;;;1.35;;
19593;SDS011;9944;48.240;16.478;2023-04-24T07:45:33;1.25;;;1.15;;
19593;SDS011;9944;48.240;16.478;2023-04-24T07:49:39;1.60;;;1.10;;
19593;SDS011;9944;48.240;16.478;2023-04-24T07:53:42;1.42;;;1.25;;
19593;SDS011;9944;48.240;16.478;2023-04-24T07:57:47;1.63;;;1.30;;
19593;SDS011;9944;48.240;16.478;2023-04-24T08:01:50;1.90;;;1.20;;
19593;SDS011;9944;48.240;16.478;2023-04-24T08:05:53;1.80;;;1.40;;
19593;SDS011;9944;48.240;16.478;2023-04-24T08:09:56;2.30;;;1.40;;
19593;SDS011;9944;48.240;16.478;2023-04-24T08:14:02;2.75;;;1.30;;
19593;SDS011;9944;48.240;16.478;2023-04-24T08:18:05;1.20;;;1.10;;
19593;SDS011;9944;48.240;16.478;2023-04-24T08:22:08;1.65;;;1.30;;
19593;SDS011;9944;48.240;16.478;2023-04-24T08:26:12;2.17;;;1.23;;
19593;SDS011;9944;48.240;16.478;2023-04-24T08:30:17;1.27;;;1.17;;
19593;SDS011;9944;48.240;16.478;2023-04-24T08:34:20;2.05;;;1.48;;
19593;SDS011;9944;48.240;16.478;2023-04-24T08:38:23;1.40;;;1.20;;
19593;SDS011;9944;48.240;16.478;2023-04-24T08:42:27;1.20;;;1.10;;
19593;SDS011;9944;48.240;16.478;2023-04-24T08:46:34;1.10;;;0.90;;
19593;SDS011;9944;48.240;16.478;2023-04-24T08:50:38;1.25;;;1.10;;
19593;SDS011;9944;48.240;16.478;2023-04-24T08:54:44;3.08;;;1.00;;
19593;SDS011;9944;48.240;16.478;2023-04-24T08:58:50;0.98;;;0.73;;
19593;SDS011;9944;48.240;16.478;2023-04-24T09:02:55;0.65;;;0.65;;
19593;SDS011;9944;48.240;16.478;2023-04-24T09:06:59;1.70;;;0.77;;
19593;SDS011;9944;48.240;16.478;2023-04-24T09:11:02;0.95;;;0.70;;
19593;SDS011;9944;48.240;16.478;2023-04-24T09:15:06;1.00;;;0.73;;
19593;SDS011;9944;48.240;16.478;2023-04-24T09:19:12;1.02;;;0.90;;
19593;SDS011;9944;48.240;16.478;2023-04-24T09:23:17;1.20;;;0.73;;
19593;SDS011;9944;48.240;16.478;2023-04-24T09:27:22;0.98;;;0.77;;
19593;SDS011;9944;48.240;16.478;2023-04-24T09:31:26;1.10;;;0.80;;
19593;SDS011;9944;48.240;16.478;2023-04-24T09:35:32;0.65;;;0.57;;
19593;SDS011;9944;48.240;16.478;2023-04-24T09:39:35;1.10;;;0.80;;
19593;SDS011;9944;48.240;16.478;2023-04-24T09:43:38;0.60;;;0.60;;
19593;SDS011;9944;48.240;16.478;2023-04-24T09:47:42;0.50;;;0.50;;
19593;SDS011;9944;48.240;16.478;2023-04-24T09:51:46;0.60;;;0.60;;
19593;SDS011;9944;48.240;16.478;2023-04-24T09:55:49;0.88;;;0.57;;
19593;SDS011;9944;48.240;16.478;2023-04-24T09:59:54;0.40;;;0.40;;
19593;SDS011;9944;48.240;16.478;2023-04-24T10:03:57;0.80;;;0.70;;
19593;SDS011;9944;48.240;16.478;2023-04-24T10:08:02;0.77;;;0.73;;
19593;SDS011;9944;48.240;16.478;2023-04-24T10:12:07;0.60;;;0.60;;
19593;SDS011;9944;48.240;16.478;2023-04-24T10:16:10;0.70;;;0.60;;
19593;SDS011;9944;48.240;16.478;2023-04-24T10:20:14;0.80;;;0.80;;
19593;SDS011;9944;48.240;16.478;2023-04-24T10:24:19;0.70;;;0.70;;
19593;SDS011;9944;48.240;16.478;2023-04-24T10:28:23;0.65;;;0.60;;
19593;SDS011;9944;48.240;16.478;2023-04-24T10:32:27;0.70;;;0.70;;
19593;SDS011;9944;48.240;16.478;2023-04-24T10:36:30;1.42;;;0.70;;
19593;SDS011;9944;48.240;16.478;2023-04-24T10:40:37;1.27;;;0.65;;
19593;SDS011;9944;48.240;16.478;2023-04-24T10:44:40;1.05;;;0.70;;
19593;SDS011;9944;48.240;16.478;2023-04-24T10:48:44;0.50;;;0.50;;
19593;SDS011;9944;48.240;16.478;2023-04-24T10:53:04;0.73;;;0.70;;
19593;SDS011;9944;48.240;16.478;2023-04-24T10:57:28;0.60;;;0.60;;
19593;SDS011;9944;48.240;16.478;2023-04-24T11:01:35;0.65;;;0.65;;
19593;SDS011;9944;48.240;16.478;2023-04-24T11:05:51;0.60;;;0.60;;
19593;SDS011;9944;48.240;16.478;2023-04-24T11:09:58;0.70;;;0.60;;
19593;SDS011;9944;48.240;16.478;2023-04-24T11:14:07;0.90;;;0.80;;
19593;SDS011;9944;48.240;16.478;2023-04-24T11:18:14;2.00;;;0.60;;
19593;SDS011;9944;48.240;16.478;2023-04-24T11:22:18;0.95;;;0.70;;
19593;SDS011;9944;48.240;16.478;2023-04-24T11:26:23;0.70;;;0.70;;
19593;SDS011;9944;48.240;16.478;2023-04-24T11:30:33;0.60;;;0.60;;
19593;SDS011;9944;48.240;16.478;2023-04-24T11:34:36;1.15;;;0.70;;
19593;SDS011;9944;48.240;16.478;2023-04-24T11:38:41;0.77;;;0.77;;
19593;SDS011;9944;48.240;16.478;2023-04-24T11:42:44;0.52;;;0.52;;
19593;SDS011;9944;48.240;16.478;2023-04-24T11:46:50;0.70;;;0.60;;
19593;SDS011;9944;48.240;16.478;2023-04-24T11:50:53;1.63;;;0.65;;
19593;SDS011;9944;48.240;16.478;2023-04-24T11:54:56;1.35;;;0.50;;
19593;SDS011;9944;48.240;16.478;2023-04-24T11:59:00;0.60;;;0.60;;
19593;SDS011;9944;48.240;16.478;2023-04-24T12:03:08;0.82;;;0.80;;
19593;SDS011;9944;48.240;16.478;2023-04-24T12:07:13;0.63;;;0.63;;
19593;SDS011;9944;48.240;16.478;2023-04-24T12:11:16;0.70;;;0.70;;
19593;SDS011;9944;48.240;16.478;2023-04-24T12:15:20;0.80;;;0.80;;
19593;SDS011;9944;48.240;16.478;2023-04-24T12:19:25;0.80;;;0.80;;
19593;SDS011;9944;48.240;16.478;2023-04-24T12:23:35;2.28;;;0.70;;
19593;SDS011;9944;48.240;16.478;2023-04-24T12:27:39;0.90;;;0.85;;
19593;SDS011;9944;48.240;16.478;2023-04-24T12:31:42;1.33;;;0.90;;
19593;SDS011;9944;48.240;16.478;2023-04-24T12:35:47;0.90;;;0.90;;
19593;SDS011;9944;48.240;16.478;2023-04-24T12:40:00;1.33;;;1.10;;
19593;SDS011;9944;48.240;16.478;2023-04-24T12:44:10;2.00;;;1.15;;
19593;SDS011;9944;48.240;16.478;2023-04-24T12:48:13;1.63;;;1.15;;
19593;SDS011;9944;48.240;16.478;2023-04-24T12:52:18;1.10;;;1.00;;
19593;SDS011;9944;48.240;16.478;2023-04-24T12:56:22;1.33;;;1.20;;
19593;SDS011;9944;48.240;16.478;2023-04-24T13:00:25;1.30;;;1.10;;
19593;SDS011;9944;48.240;16.478;2023-04-24T13:04:29;3.10;;;0.98;;
19593;SDS011;9944;48.240;16.478;2023-04-24T13:08:33;1.05;;;0.85;;
19593;SDS011;9944;48.240;16.478;2023-04-24T13:12:36;0.90;;;0.80;;
19593;SDS011;9944;48.240;16.478;2023-04-24T13:16:40;1.40;;;0.90;;
19593;SDS011;9944;48.240;16.478;2023-04-24T13:20:43;1.15;;;0.90;;
19593;SDS011;9944;48.240;16.478;2023-04-24T13:24:50;0.98;;;0.80;;
19593;SDS011;9944;48.240;16.478;2023-04-24T13:28:53;2.65;;;0.90;;
19593;SDS011;9944;48.240;16.478;2023-04-24T13:32:56;1.20;;;0.93;;
19593;SDS011;9944;48.240;16.478;2023-04-24T13:36:59;1.08;;;0.85;;
19593;SDS011;9944;48.240;16.478;2023-04-24T13:41:04;1.38;;;1.00;;
19593;SDS011;9944;48.240;16.478;2023-04-24T13:45:07;0.90;;;0.80;;
19593;SDS011;9944;48.240;16.478;2023-04-24T13:49:25;1.15;;;1.00;;
19593;SDS011;9944;48.240;16.478;2023-04-24T13:53:28;1.17;;;1.08;;
19593;SDS011;9944;48.240;16.478;2023-04-24T13:57:33;1.58;;;1.10;;
19593;SDS011;9944;48.240;16.478;2023-04-24T14:01:36;2.95;;;1.27;;
19593;SDS011;9944;48.240;16.478;2023-04-24T14:05:40;1.30;;;1.20;;
19593;SDS011;9944;48.240;16.478;2023-04-24T14:09:43;2.90;;;1.50;;
19593;SDS011;9944;48.240;16.478;2023-04-24T14:13:47;1.83;;;1.60;;
19593;SDS011;9944;48.240;16.478;2023-04-24T14:17:50;1.88;;;1.50;;
19593;SDS011;9944;48.240;16.478;2023-04-24T14:21:53;2.25;;;1.73;;
19593;SDS011;9944;48.240;16.478;2023-04-24T14:26:00;2.80;;;1.65;;
19593;SDS011;9944;48.240;16.478;2023-04-24T14:30:05;2.63;;;1.52;;
19593;SDS011;9944;48.240;16.478;2023-04-24T14:34:09;3.15;;;1.52;;
19593;SDS011;9944;48.240;16.478;2023-04-24T14:38:12;2.85;;;1.60;;
19593;SDS011;9944;48.240;16.478;2023-04-24T14:42:15;2.50;;;1.83;;
19593;SDS011;9944;48.240;16.478;2023-04-24T14:46:20;1.75;;;1.42;;
19593;SDS011;9944;48.240;16.478;2023-04-24T14:50:24;2.35;;;1.60;;
19593;SDS011;9944;48.240;16.478;2023-04-24T14:54:29;1.77;;;1.60;;
19593;SDS011;9944;48.240;16.478;2023-04-24T14:58:32;2.13;;;1.40;;
19593;SDS011;9944;48.240;16.478;2023-04-24T15:02:37;1.83;;;1.40;;
19593;SDS011;9944;48.240;16.478;2023-04-24T15:06:43;2.00;;;1.60;;
19593;SDS011;9944;48.240;16.478;2023-04-24T15:10:46;2.28;;;1.70;;
19593;SDS011;9944;48.240;16.478;2023-04-24T15:14:49;1.88;;;1.40;;
19593;SDS011;9944;48.240;16.478;2023-04-24T15:18:54;4.95;;;1.70;;
19593;SDS011;9944;48.240;16.478;2023-04-24T15:22:58;1.50;;;1.23;;
19593;SDS011;9944;48.240;16.478;2023-04-24T15:27:03;2.53;;;1.40;;
19593;SDS011;9944;48.240;16.478;2023-04-24T15:31:06;1.73;;;1.38;;
19593;SDS011;9944;48.240;16.478;2023-04-24T15:35:11;2.42;;;1.58;;
19593;SDS011;9944;48.240;16.478;2023-04-24T15:39:14;2.03;;;1.70;;
19593;SDS011;9944;48.240;16.478;2023-04-24T15:43:17;1.58;;;1.27;;
19593;SDS011;9944;48.240;16.478;2023-04-24T15:47:20;1.35;;;0.90;;
19593;SDS011;9944;48.240;16.478;2023-04-24T15:51:25;2.25;;;1.25;;
19593;SDS011;9944;48.240;16.478;2023-04-24T15:55:28;0.93;;;0.82;;
19593;SDS011;9944;48.240;16.478;2023-04-24T15:59:31;0.70;;;0.70;;
19593;SDS011;9944;48.240;16.478;2023-04-24T16:03:34;0.50;;;0.50;;
19593;SDS011;9944;48.240;16.478;2023-04-24T16:07:39;0.50;;;0.50;;
19593;SDS011;9944;48.240;16.478;2023-04-24T16:11:42;0.38;;;0.38;;
19593;SDS011;9944;48.240;16.478;2023-04-24T16:15:45;0.50;;;0.50;;
19593;SDS011;9944;48.240;16.478;2023-04-24T16:19:49;0.77;;;0.60;;
19593;SDS011;9944;48.240;16.478;2023-04-24T16:23:53;0.75;;;0.52;;
19593;SDS011;9944;48.240;16.478;2023-04-24T16:27:56;0.77;;;0.50;;
19593;SDS011;9944;48.240;16.478;2023-04-24T16:32:00;0.40;;;0.40;;
19593;SDS011;9944;48.240;16.478;2023-04-24T16:36:03;0.50;;;0.50;;
19593;SDS011;9944;48.240;16.478;2023-04-24T16:40:09;1.33;;;0.52;;
19593;SDS011;9944;48.240;16.478;2023-04-24T16:44:13;1.05;;;0.70;;
19593;SDS011;9944;48.240;16.478;2023-04-24T16:48:16;0.60;;;0.60;;
19593;SDS011;9944;48.240;16.478;2023-04-24T16:52:19;1.08;;;0.65;;
19593;SDS011;9944;48.240;16.478;2023-04-24T16:56:23;1.60;;;0.70;;
19593;SDS011;9944;48.240;16.478;2023-04-24T17:00:26;0.68;;;0.68;;
19593;SDS011;9944;48.240;16.478;2023-04-24T17:04:30;1.63;;;0.60;;
19593;SDS011;9944;48.240;16.478;2023-04-24T17:08:36;0.70;;;0.70;;
19593;SDS011;9944;48.240;16.478;2023-04-24T17:12:40;1.58;;;0.60;;
19593;SDS011;9944;48.240;16.478;2023-04-24T17:16:43;1.50;;;1.00;;
19593;SDS011;9944;48.240;16.478;2023-04-24T17:20:47;0.80;;;0.80;;
19593;SDS011;9944;48.240;16.478;2023-04-24T17:24:51;1.33;;;0.88;;
19593;SDS011;9944;48.240;16.478;2023-04-24T17:28:56;0.80;;;0.80;;
19593;SDS011;9944;48.240;16.478;2023-04-24T17:32:59;1.25;;;0.80;;
19593;SDS011;9944;48.240;16.478;2023-04-24T17:37:02;1.08;;;0.90;;
19593;SDS011;9944;48.240;16.478;2023-04-24T17:41:05;1.40;;;1.00;;
19593;SDS011;9944;48.240;16.478;2023-04-24T17:45:10;1.20;;;0.85;;
19593;SDS011;9944;48.240;16.478;2023-04-24T17:49:13;1.90;;;1.00;;
19593;SDS011;9944;48.240;16.478;2023-04-24T17:53:17;1.45;;;1.10;;
19593;SDS011;9944;48.240;16.478;2023-04-24T17:57:22;2.00;;;1.13;;
19593;SDS011;9944;48.240;16.478;2023-04-24T18:01:26;1.27;;;1.00;;
19593;SDS011;9944;48.240;16.478;2023-04-24T18:05:30;1.45;;;1.02;;
19593;SDS011;9944;48.240;16.478;2023-04-24T18:09:33;1.10;;;1.00;;
19593;SDS011;9944;48.240;16.478;2023-04-24T18:13:37;1.83;;;1.00;;
19593;SDS011;9944;48.240;16.478;2023-04-24T18:17:43;1.73;;;1.10;;
19593;SDS011;9944;48.240;16.478;2023-04-24T18:21:46;1.23;;;1.08;;
19593;SDS011;9944;48.240;16.478;2023-04-24T18:25:49;1.40;;;1.30;;
19593;SDS011;9944;48.240;16.478;2023-04-24T18:29:52;1.30;;;1.20;;
19593;SDS011;9944;48.240;16.478;2023-04-24T18:33:57;1.27;;;1.10;;
19593;SDS011;9944;48.240;16.478;2023-04-24T18:38:00;1.48;;;1.20;;
19593;SDS011;9944;48.240;16.478;2023-04-24T18:42:03;0.95;;;0.95;;
19593;SDS011;9944;48.240;16.478;2023-04-24T18:46:06;1.00;;;0.95;;
19593;SDS011;9944;48.240;16.478;2023-04-24T18:50:11;1.20;;;1.10;;
19593;SDS011;9944;48.240;16.478;2023-04-24T18:54:15;1.05;;;0.90;;
19593;SDS011;9944;48.240;16.478;2023-04-24T18:58:18;1.42;;;0.98;;
19593;SDS011;9944;48.240;16.478;2023-04-24T19:02:21;1.20;;;1.02;;
19593;SDS011;9944;48.240;16.478;2023-04-24T19:06:26;1.10;;;1.00;;
19593;SDS011;9944;48.240;16.478;2023-04-24T19:10:29;1.40;;;1.00;;
19593;SDS011;9944;48.240;16.478;2023-04-24T19:14:34;1.17;;;1.08;;
19593;SDS011;9944;48.240;16.478;2023-04-24T19:18:37;2.13;;;1.00;;
19593;SDS011;9944;48.240;16.478;2023-04-24T19:22:41;2.20;;;1.30;;
19593;SDS011;9944;48.240;16.478;2023-04-24T19:26:44;1.17;;;1.08;;
19593;SDS011;9944;48.240;16.478;2023-04-24T19:30:48;3.25;;;1.10;;
19593;SDS011;9944;48.240;16.478;2023-04-24T19:34:51;1.50;;;1.00;;
19593;SDS011;9944;48.240;16.478;2023-04-24T19:38:55;1.02;;;0.93;;
19593;SDS011;9944;48.240;16.478;2023-04-24T19:42:58;1.70;;;1.08;;
19593;SDS011;9944;48.240;16.478;2023-04-24T19:47:01;1.17;;;0.95;;
19593;SDS011;9944;48.240;16.478;2023-04-24T19:51:04;1.80;;;1.15;;
19593;SDS011;9944;48.240;16.478;2023-04-24T19:55:09;1.20;;;0.95;;
19593;SDS011;9944;48.240;16.478;2023-04-24T19:59:13;1.17;;;1.00;;
19593;SDS011;9944;48.240;16.478;2023-04-24T20:03:16;2.22;;;1.30;;
19593;SDS011;9944;48.240;16.478;2023-04-24T20:07:34;1.38;;;1.20;;
19593;SDS011;9944;48.240;16.478;2023-04-24T20:11:38;2.03;;;1.33;;
19593;SDS011;9944;48.240;16.478;2023-04-24T20:15:41;1.48;;;1.10;;
19593;SDS011;9944;48.240;16.478;2023-04-24T20:19:44;2.05;;;1.10;;
19593;SDS011;9944;48.240;16.478;2023-04-24T20:23:48;1.23;;;1.05;;
19593;SDS011;9944;48.240;16.478;2023-04-24T20:27:54;1.67;;;1.33;;
19593;SDS011;9944;48.240;16.478;2023-04-24T20:31:57;1.33;;;1.08;;
19593;SDS011;9944;48.240;16.478;2023-04-24T20:36:00;2.08;;;1.10;;
19593;SDS011;9944;48.240;16.478;2023-04-24T20:40:03;1.50;;;1.20;;
19593;SDS011;9944;48.240;16.478;2023-04-24T20:44:08;1.20;;;1.10;;
19593;SDS011;9944;48.240;16.478;2023-04-24T20:48:12;1.70;;;1.30;;
19593;SDS011;9944;48.240;16.478;2023-04-24T20:52:15;1.30;;;1.20;;
19593;SDS011;9944;48.240;16.478;2023-04-24T20:56:19;1.30;;;1.20;;
19593;SDS011;9944;48.240;16.478;2023-04-24T21:00:24;1.20;;;1.10;;
19593;SDS011;9944;48.240;16.478;2023-04-24T21:04:27;1.92;;;1.50;;
19593;SDS011;9944;48.240;16.478;2023-04-24T21:08:32;1.25;;;1.15;;
19593;SDS011;9944;48.240;16.478;2023-04-24T21:12:37;1.20;;;1.10;;
19593;SDS011;9944;48.240;16.478;2023-04-24T21:16:41;1.67;;;1.20;;
19593;SDS011;9944;48.240;16.478;2023-04-24T21:20:44;1.52;;;1.00;;
19593;SDS011;9944;48.240;16.478;2023-04-24T21:24:47;1.58;;;1.10;;
19593;SDS011;9944;48.240;16.478;2023-04-24T21:28:51;1.20;;;1.10;;
19593;SDS011;9944;48.240;16.478;2023-04-24T21:32:55;1.85;;;1.27;;
19593;SDS011;9944;48.240;16.478;2023-04-24T21:36:59;1.45;;;1.10;;
19593;SDS011;9944;48.240;16.478;2023-04-24T21:41:02;1.70;;;1.10;;
19593;SDS011;9944;48.240;16.478;2023-04-24T21:45:06;1.20;;;1.10;;
19593;SDS011;9944;48.240;16.478;2023-04-24T21:49:11;1.30;;;1.20;;
19593;SDS011;9944;48.240;16.478;2023-04-24T21:53:14;1.58;;;1.10;;
19593;SDS011;9944;48.240;16.478;2023-04-24T21:57:17;1.10;;;1.00;;
19593;SDS011;9944;48.240;16.478;2023-04-24T22:01:21;1.98;;;1.10;;
19593;SDS011;9944;48.240;16.478;2023-04-24T22:05:25;1.35;;;1.08;;
19593;SDS011;9944;48.240;16.478;2023-04-24T22:09:28;1.00;;;1.00;;
19593;SDS011;9944;48.240;16.478;2023-04-24T22:13:31;1.50;;;1.38;;
19593;SDS011;9944;48.240;16.478;2023-04-24T22:17:35;1.55;;;1.10;;
19593;SDS011;9944;48.240;16.478;2023-04-24T22:21:40;1.10;;;1.00;;
19593;SDS011;9944;48.240;16.478;2023-04-24T22:25:44;1.00;;;0.90;;
19593;SDS011;9944;48.240;16.478;2023-04-24T22:29:47;1.42;;;1.10;;
19593;SDS011;9944;48.240;16.478;2023-04-24T22:33:50;1.50;;;1.40;;
19593;SDS011;9944;48.240;16.478;2023-04-24T22:37:55;1.10;;;1.00;;
19593;SDS011;9944;48.240;16.478;2023-04-24T22:41:58;2.25;;;1.30;;
19593;SDS011;9944;48.240;16.478;2023-04-24T22:46:02;1.20;;;1.10;;
19593;SDS011;9944;48.240;16.478;2023-04-24T22:50:06;1.75;;;1.00;;
19593;SDS011;9944;48.240;16.478;2023-04-24T22:54:12;1.20;;;1.10;;
19593;SDS011;9944;48.240;16.478;2023-04-24T22:58:16;1.10;;;1.00;;
19593;SDS011;9944;48.240;16.478;2023-04-24T23:02:19;1.85;;;1.10;;
19593;SDS011;9944;48.240;16.478;2023-04-24T23:06:22;1.08;;;1.00;;
19593;SDS011;9944;48.240;16.478;2023-04-24T23:10:27;1.10;;;1.00;;
19593;SDS011;9944;48.240;16.478;2023-04-24T23:14:31;0.95;;;0.95;;
19593;SDS011;9944;48.240;16.478;2023-04-24T23:18:34;1.60;;;1.10;;
19593;SDS011;9944;48.240;16.478;2023-04-24T23:22:37;1.65;;;1.00;;
19593;SDS011;9944;48.240;16.478;2023-04-24T23:26:42;0.95;;;0.93;;
19593;SDS011;9944;48.240;16.478;2023-04-24T23:30:46;1.27;;;1.17;;
19593;SDS011;9944;48.240;16.478;2023-04-24T23:34:49;1.38;;;1.00;;
19593;SDS011;9944;48.240;16.478;2023-04-24T23:38:52;1.63;;;1.05;;
19593;SDS011;9944;48.240;16.478;2023-04-24T23:42:56;1.17;;;0.90;;
19593;SDS011;9944;48.240;16.478;2023-04-24T23:47:08;1.20;;;1.10;;
19593;SDS011;9944;48.240;16.478;2023-04-24T23:51:11;1.42;;;1.02;;
19593;SDS011;9944;48.240;16.478;2023-04-24T23:55:14;1.80;;;1.10;;
19593;SDS011;9944;48.240;16.478;2023-04-24T23:59:19;1.30;;;1.20;;
